Time;durP1;ratioP1;P1;durP2;ratioP2;P2;SDS_P1;SDS_P2;PMS_P1;PMS_P2;Temp;Humidity;BMP_temperature;BMP_pressure;BME280_temperature;BME280_humidity;BME280_pressure;Samples;Min_cycle;Max_cycle;Signal;HPM_P1;HPM_P2
2024/02/06 00:00:46;;;;;;;2.60;2.10;;;;;;;7.48;100.00;97043.56;110447;1238;59671;-62
2024/02/06 00:03:34;;;;;;;4.20;2.10;;;;;;;7.42;100.00;97052.46;110419;1245;59598;-62
2024/02/06 00:06:04;;;;;;;4.40;2.20;;;;;;;7.52;100.00;97048.48;110749;1239;70900;-62
2024/02/06 00:08:36;;;;;;;3.80;2.10;;;;;;;7.60;100.00;97048.66;110343;1241;69790;-62
2024/02/06 00:11:07;;;;;;;4.50;2.00;;;;;;;7.64;100.00;97046.31;110305;1242;70093;-62
2024/02/06 00:13:37;;;;;;;4.30;2.00;;;;;;;7.60;100.00;97047.98;110259;1241;59678;-62
2024/02/06 00:16:14;;;;;;;3.90;1.90;;;;;;;7.57;100.00;97044.69;110448;1240;59703;-62
2024/02/06 00:18:43;;;;;;;3.00;1.80;;;;;;;7.53;100.00;97040.10;110364;1241;71783;-62
2024/02/06 00:21:12;;;;;;;3.80;2.10;;;;;;;7.50;100.00;97038.90;110462;1241;69199;-62
2024/02/06 00:23:43;;;;;;;2.90;1.80;;;;;;;7.44;100.00;97034.84;110434;1240;69263;-63
2024/02/06 00:26:11;;;;;;;4.10;2.10;;;;;;;7.47;100.00;97035.89;110402;1241;59692;-63
2024/02/06 00:28:40;;;;;;;3.40;2.10;;;;;;;7.42;100.00;97032.52;110349;1241;59671;-62
2024/02/06 00:31:11;;;;;;;2.80;2.00;;;;;;;7.32;100.00;97029.39;110388;1241;70750;-62
2024/02/06 00:33:40;;;;;;;4.20;2.20;;;;;;;7.28;100.00;97033.61;110477;1241;69463;-62
2024/02/06 00:36:11;;;;;;;5.50;3.50;;;;;;;7.21;100.00;97039.12;110380;1241;69640;-62
2024/02/06 00:38:40;;;;;;;6.70;4.50;;;;;;;7.02;100.00;97043.08;110544;1241;59762;-61
2024/02/06 00:41:11;;;;;;;5.40;4.00;;;;;;;6.74;100.00;97045.11;110481;1241;59676;-62
2024/02/06 00:43:40;;;;;;;5.00;3.90;;;;;;;6.67;100.00;97043.95;110518;1241;72181;-61
2024/02/06 00:46:09;;;;;;;6.90;3.70;;;;;;;6.56;100.00;97042.76;110462;1241;69619;-63
2024/02/06 00:48:38;;;;;;;4.50;3.80;;;;;;;6.49;100.00;97045.80;110377;1241;69222;-63
2024/02/06 00:51:08;;;;;;;6.50;3.80;;;;;;;6.40;100.00;97047.56;110485;1241;59701;-62
2024/02/06 00:53:37;;;;;;;5.90;3.50;;;;;;;6.33;100.00;97054.56;110363;1241;59759;-62
2024/02/06 00:56:07;;;;;;;4.80;3.00;;;;;;;6.29;100.00;97052.54;110370;1241;70400;-61
2024/02/06 00:58:36;;;;;;;3.80;2.80;;;;;;;6.15;100.00;97056.19;110364;1241;70158;-63
2024/02/06 01:01:05;;;;;;;4.00;3.10;;;;;;;6.06;100.00;97054.99;110359;1241;70028;-62
2024/02/06 01:03:34;;;;;;;4.80;3.40;;;;;;;5.96;100.00;97048.31;110413;1240;59747;-61
2024/02/06 01:06:03;;;;;;;5.10;3.40;;;;;;;5.85;100.00;97048.77;110348;1240;59690;-61
2024/02/06 01:08:32;;;;;;;4.70;3.90;;;;;;;5.74;100.00;97053.05;110471;1241;72033;-61
2024/02/06 01:11:01;;;;;;;5.40;3.60;;;;;;;5.68;100.00;97057.23;110393;1241;69266;-63
2024/02/06 01:13:30;;;;;;;4.70;3.30;;;;;;;5.56;100.00;97056.49;110268;1244;69359;-63
2024/02/06 01:16:00;;;;;;;5.40;4.00;;;;;;;5.48;100.00;97047.65;110401;1241;60105;-64
2024/02/06 01:18:29;;;;;;;5.00;3.60;;;;;;;5.41;100.00;97039.44;110410;1241;59685;-64
2024/02/06 01:20:58;;;;;;;5.10;3.30;;;;;;;5.35;100.00;97037.55;110382;1241;71390;-62
2024/02/06 01:23:27;;;;;;;5.20;3.50;;;;;;;5.29;100.00;97038.39;110403;1240;69401;-63
2024/02/06 01:25:56;;;;;;;4.40;3.00;;;;;;;5.27;100.00;97033.52;110389;1241;69841;-63
2024/02/06 01:28:25;;;;;;;7.20;4.80;;;;;;;5.23;100.00;97027.88;110432;1241;59739;-64
2024/02/06 01:30:55;;;;;;;6.30;3.60;;;;;;;5.24;100.00;97028.30;110273;1240;59699;-62
2024/02/06 01:33:24;;;;;;;6.40;5.00;;;;;;;5.25;100.00;97027.19;110453;1241;71854;-62
2024/02/06 01:35:52;;;;;;;6.70;4.70;;;;;;;5.29;100.00;97028.02;110496;1241;69596;-63
2024/02/06 01:38:22;;;;;;;6.00;4.10;;;;;;;5.34;100.00;97034.81;110487;1241;68203;-63
2024/02/06 01:40:51;;;;;;;5.60;4.00;;;;;;;5.30;100.00;97030.04;110459;1241;59748;-63
2024/02/06 01:43:20;;;;;;;4.80;3.60;;;;;;;5.20;100.00;97029.08;110430;1248;59602;-62
2024/02/06 01:45:54;;;;;;;5.20;3.80;;;;;;;5.12;100.00;97026.39;110471;1241;71424;-63
2024/02/06 01:48:23;;;;;;;6.90;4.30;;;;;;;5.09;100.00;97028.27;110456;1241;69159;-62
2024/02/06 01:50:53;;;;;;;5.50;4.40;;;;;;;5.05;100.00;97030.59;110372;1242;69566;-66
2024/02/06 01:53:23;;;;;;;6.30;4.70;;;;;;;5.02;100.00;97031.98;110430;1242;59722;-62
2024/02/06 01:55:53;;;;;;;;;;;;;;;4.98;100.00;97037.59;110517;1241;59697;-63
2024/02/06 01:58:23;;;;;;;7.50;4.10;;;;;;;4.89;100.00;97043.75;110414;1241;71153;-63
2024/02/06 02:00:52;;;;;;;7.10;4.40;;;;;;;4.90;100.00;97038.39;110518;1241;69771;-62
2024/02/06 02:03:23;;;;;;;6.20;4.10;;;;;;;4.89;100.00;97034.61;110479;1240;69528;-62
2024/02/06 02:05:52;;;;;;;5.60;3.90;;;;;;;4.87;100.00;97038.19;110449;1241;59692;-63
2024/02/06 02:08:24;;;;;;;5.40;4.30;;;;;;;4.78;100.00;97037.46;110502;1238;59618;-62
2024/02/06 02:10:54;;;;;;;4.60;3.40;;;;;;;4.63;100.00;97035.17;110496;1241;71974;-63
2024/02/06 02:13:25;;;;;;;4.00;3.50;;;;;;;4.48;100.00;97036.52;110510;1242;69069;-63
2024/02/06 02:15:55;;;;;;;4.80;3.10;;;;;;;4.37;100.00;97039.39;110339;1248;69743;-63
2024/02/06 02:18:33;;;;;;;5.20;3.80;;;;;;;4.27;100.00;97036.27;110495;1242;59750;-63
2024/02/06 02:21:11;;;;;;;6.60;4.20;;;;;;;4.21;100.00;97034.89;110398;1241;59679;-63
2024/02/06 02:23:43;;;;;;;5.90;3.90;;;;;;;4.16;100.00;97033.95;110357;1241;71910;-63
2024/02/06 02:26:13;;;;;;;7.80;4.10;;;;;;;4.12;100.00;97036.91;110433;1241;69635;-64
2024/02/06 02:28:43;;;;;;;6.60;4.90;;;;;;;4.07;100.00;97037.14;110404;1241;70349;-62
2024/02/06 02:31:12;;;;;;;7.90;5.10;;;;;;;4.05;100.00;97043.46;110347;1242;59728;-62
2024/02/06 02:33:42;;;;;;;11.00;6.70;;;;;;;4.00;100.00;97043.74;110385;1241;59660;-62
2024/02/06 02:36:11;;;;;;;13.10;9.00;;;;;;;3.95;100.00;97043.83;110475;1241;71275;-62
2024/02/06 02:38:42;;;;;;;26.40;15.70;;;;;;;3.90;100.00;97042.89;110334;1241;69828;-62
2024/02/06 02:41:10;;;;;;;16.70;9.90;;;;;;;3.79;100.00;97046.75;110233;1241;70058;-62
2024/02/06 02:43:40;;;;;;;14.10;9.30;;;;;;;3.65;100.00;97049.01;110470;1244;59730;-62
2024/02/06 02:46:09;;;;;;;13.30;7.60;;;;;;;3.53;100.00;97046.84;110463;1240;59664;-62
2024/02/06 02:48:38;;;;;;;10.80;7.50;;;;;;;3.43;100.00;97047.52;110411;1248;71206;-62
2024/02/06 02:51:07;;;;;;;11.40;7.00;;;;;;;3.35;100.00;97052.95;110482;1241;69263;-62
2024/02/06 02:53:36;;;;;;;10.30;6.30;;;;;;;3.26;100.00;97050.10;110404;1242;69961;-62
2024/02/06 02:56:05;;;;;;;8.70;6.50;;;;;;;3.18;100.00;97047.20;110406;1241;59675;-62
2024/02/06 02:58:34;;;;;;;9.30;5.70;;;;;;;3.12;100.00;97055.10;110494;1239;59681;-62
2024/02/06 03:01:05;;;;;;;12.60;6.90;;;;;;;3.05;100.00;97055.27;110360;1242;72142;-61
2024/02/06 03:03:35;;;;;;;8.40;5.90;;;;;;;3.01;100.00;97052.99;110438;1241;70053;-62
2024/02/06 03:06:04;;;;;;;7.20;5.40;;;;;;;3.00;100.00;97052.19;110325;1240;68401;-62
2024/02/06 03:08:33;;;;;;;7.50;5.40;;;;;;;2.97;100.00;97050.81;110359;1240;59721;-63
2024/02/06 03:11:01;;;;;;;6.90;5.00;;;;;;;2.92;100.00;97053.98;110310;1241;59787;-62
2024/02/06 03:13:30;;;;;;;8.10;5.00;;;;;;;2.89;100.00;97056.39;110363;1238;71468;-62
2024/02/06 03:16:00;;;;;;;7.50;5.30;;;;;;;2.86;100.00;97060.31;110401;1241;69211;-62
2024/02/06 03:18:29;;;;;;;7.70;4.90;;;;;;;2.82;100.00;97062.36;110387;1242;69352;-63
2024/02/06 03:20:58;;;;;;;6.60;4.10;;;;;;;2.76;100.00;97066.60;110425;1242;59745;-62
2024/02/06 03:23:27;;;;;;;9.10;6.30;;;;;;;2.70;100.00;97068.80;110461;1240;59687;-62
2024/02/06 03:25:56;;;;;;;8.50;5.80;;;;;;;2.64;100.00;97069.45;110411;1241;71335;-62
2024/02/06 03:28:25;;;;;;;6.20;5.60;;;;;;;2.56;100.00;97073.73;110384;1240;69494;-62
2024/02/06 03:30:54;;;;;;;6.40;5.60;;;;;;;2.49;100.00;97071.98;110377;1238;69273;-62
2024/02/06 03:33:24;;;;;;;7.80;5.90;;;;;;;2.47;100.00;97074.51;110310;1238;59699;-62
2024/02/06 03:35:53;;;;;;;7.50;5.80;;;;;;;2.44;100.00;97076.38;110362;1241;59605;-62
2024/02/06 03:38:22;;;;;;;7.20;5.70;;;;;;;2.38;100.00;97080.21;110368;1240;71066;-62
2024/02/06 03:40:51;;;;;;;9.00;6.30;;;;;;;2.32;100.00;97084.11;110395;1240;68562;-62
2024/02/06 03:43:20;;;;;;;8.60;5.60;;;;;;;2.23;100.00;97087.42;110350;1240;69829;-62
2024/02/06 03:45:49;;;;;;;6.60;5.50;;;;;;;2.15;100.00;97096.42;110415;1241;59666;-62
2024/02/06 03:48:18;;;;;;;8.70;5.40;;;;;;;2.07;100.00;97095.55;110437;1241;59843;-62
2024/02/06 03:50:47;;;;;;;8.70;5.40;;;;;;;2.02;100.00;97096.14;110430;1241;71324;-62
2024/02/06 03:53:16;;;;;;;9.40;5.60;;;;;;;1.94;100.00;97096.10;110521;1240;69657;-62
2024/02/06 03:55:45;;;;;;;8.70;5.50;;;;;;;1.88;100.00;97088.31;110423;1240;68819;-62
2024/02/06 03:58:14;;;;;;;9.10;6.70;;;;;;;1.82;100.00;97088.23;110379;1245;59743;-62
2024/02/06 04:00:49;;;;;;;8.70;6.20;;;;;;;1.77;100.00;97083.27;110355;1241;59657;-62
2024/02/06 04:03:19;;;;;;;9.30;6.10;;;;;;;1.73;100.00;97083.42;110380;1241;72046;-62
2024/02/06 04:05:48;;;;;;;7.50;6.10;;;;;;;1.72;100.00;97078.02;110426;1243;69759;-62
2024/02/06 04:08:17;;;;;;;9.50;5.80;;;;;;;1.73;100.00;97074.17;110497;1240;68785;-62
2024/02/06 04:10:46;;;;;;;11.90;6.10;;;;;;;1.74;100.00;97080.31;110514;1238;59836;-62
2024/02/06 04:13:15;;;;;;;8.60;5.20;;;;;;;1.72;100.00;97081.08;110547;1241;59785;-62
2024/02/06 04:15:44;;;;;;;7.20;5.30;;;;;;;1.70;100.00;97080.30;110543;1240;71170;-63
2024/02/06 04:18:13;;;;;;;7.40;5.60;;;;;;;1.66;100.00;97079.09;110466;1240;69236;-62
2024/02/06 04:20:42;;;;;;;7.80;6.00;;;;;;;1.60;100.00;97080.21;110441;1238;68679;-62
2024/02/06 04:23:11;;;;;;;8.90;5.30;;;;;;;1.53;100.00;97084.45;110516;1238;59725;-63
2024/02/06 04:25:40;;;;;;;8.50;5.50;;;;;;;1.45;100.00;97081.00;110438;1241;59669;-62
2024/02/06 04:28:09;;;;;;;6.10;5.10;;;;;;;1.39;100.00;97081.11;110232;1240;71959;-62
2024/02/06 04:30:38;;;;;;;7.60;5.40;;;;;;;1.34;100.00;97073.58;110364;1241;69636;-62
2024/02/06 04:33:08;;;;;;;9.00;6.00;;;;;;;1.29;100.00;97076.20;110348;1241;69263;-62
2024/02/06 04:35:37;;;;;;;9.80;7.60;;;;;;;1.22;100.00;97080.91;110460;1241;59817;-62
2024/02/06 04:38:06;;;;;;;11.10;6.40;;;;;;;1.16;100.00;97074.64;110382;1240;59721;-62
2024/02/06 04:40:35;;;;;;;6.70;5.60;;;;;;;1.14;100.00;97067.69;110445;1240;70404;-62
2024/02/06 04:43:05;;;;;;;8.60;6.00;;;;;;;1.20;100.00;97073.15;110423;1241;69690;-62
2024/02/06 04:45:34;;;;;;;9.20;7.00;;;;;;;1.24;100.00;97081.72;110456;1238;69247;-62
2024/02/06 04:48:03;;;;;;;8.70;6.00;;;;;;;1.26;100.00;97073.06;110414;1238;59695;-62
2024/02/06 04:50:32;;;;;;;10.40;7.40;;;;;;;1.31;100.00;97069.92;110424;1241;59703;-62
2024/02/06 04:53:03;;;;;;;10.70;7.20;;;;;;;1.36;100.00;97064.04;110437;1241;72081;-62
2024/02/06 04:55:32;;;;;;;11.50;7.00;;;;;;;1.38;100.00;97083.37;110475;1239;68873;-62
2024/02/06 04:58:01;;;;;;;12.90;8.00;;;;;;;1.35;100.00;97068.22;110437;1240;70117;-62
2024/02/06 05:00:30;;;;;;;9.40;6.20;;;;;;;1.29;100.00;97075.34;110440;1241;60208;-62
2024/02/06 05:02:59;;;;;;;8.30;5.80;;;;;;;1.25;100.00;97084.25;110492;1242;59707;-62
2024/02/06 05:05:28;;;;;;;18.40;12.10;;;;;;;1.19;100.00;97076.59;110432;1241;72123;-62
2024/02/06 05:07:57;;;;;;;10.10;7.80;;;;;;;1.18;100.00;97070.30;110393;1238;69851;-62
2024/02/06 05:10:27;;;;;;;12.40;7.90;;;;;;;1.19;100.00;97076.06;110385;1238;69718;-62
2024/02/06 05:12:56;;;;;;;10.80;8.50;;;;;;;1.17;100.00;97075.29;110401;1245;60156;-62
2024/02/06 05:15:25;;;;;;;13.80;7.80;;;;;;;1.16;100.00;97076.73;110402;1240;59702;-62
2024/02/06 05:17:53;;;;;;;10.00;8.00;;;;;;;1.10;100.00;97078.70;110346;1241;70781;-62
2024/02/06 05:20:23;;;;;;;8.70;6.70;;;;;;;1.04;100.00;97067.08;110334;1241;69311;-62
2024/02/06 05:22:52;;;;;;;12.30;7.60;;;;;;;1.05;100.00;97078.55;110311;1241;69399;-63
2024/02/06 05:25:21;;;;;;;19.80;12.00;;;;;;;1.02;100.00;97076.92;110441;1240;59714;-62
2024/02/06 05:27:52;;;;;;;24.20;12.90;;;;;;;1.01;100.00;97076.45;110380;1240;59692;-61
2024/02/06 05:30:21;;;;;;;22.90;13.10;;;;;;;0.98;100.00;97076.04;110372;1244;71938;-62
2024/02/06 05:32:50;;;;;;;23.30;12.10;;;;;;;0.92;100.00;97076.45;110402;1241;69197;-62
2024/02/06 05:35:19;;;;;;;20.50;11.60;;;;;;;0.89;100.00;97072.98;110430;1239;69208;-62
2024/02/06 05:37:49;;;;;;;18.80;11.40;;;;;;;0.87;100.00;97077.88;110431;1241;59670;-62
2024/02/06 05:40:18;;;;;;;13.80;8.10;;;;;;;0.82;100.00;97065.52;110396;1241;59699;-62
2024/02/06 05:42:47;;;;;;;14.20;8.10;;;;;;;0.78;100.00;97061.92;110431;1241;72169;-61
2024/02/06 05:45:16;;;;;;;15.40;9.30;;;;;;;0.76;100.00;97069.91;110376;1241;69192;-62
2024/02/06 05:47:45;;;;;;;15.00;8.90;;;;;;;0.73;100.00;97065.54;110424;1241;69266;-62
2024/02/06 05:50:14;;;;;;;25.10;13.60;;;;;;;0.69;100.00;97064.85;110316;1242;59702;-63
2024/02/06 05:52:43;;;;;;;40.00;21.10;;;;;;;0.69;100.00;97064.69;110351;1241;59693;-62
2024/02/06 05:55:12;;;;;;;28.40;15.10;;;;;;;0.73;100.00;97080.66;110341;1240;70340;-62
2024/02/06 05:57:42;;;;;;;26.70;12.30;;;;;;;0.75;100.00;97071.46;110433;1240;69077;-62
2024/02/06 06:00:12;;;;;;;19.10;11.50;;;;;;;0.79;100.00;97079.58;110340;1241;69186;-62
2024/02/06 06:02:40;;;;;;;;;;;;;;;0.80;100.00;97085.39;110378;1241;59754;-62
2024/02/06 06:05:10;;;;;;;22.20;13.80;;;;;;;0.77;100.00;97081.01;110318;1239;59700;-62
2024/02/06 06:07:39;;;;;;;19.70;10.20;;;;;;;0.75;100.00;97087.95;110500;1241;70828;-62
2024/02/06 06:10:09;;;;;;;17.20;9.40;;;;;;;0.76;100.00;97082.42;110366;1240;69705;-62
2024/02/06 06:12:38;;;;;;;15.40;10.20;;;;;;;0.76;100.00;97092.01;110326;1241;69613;-62
2024/02/06 06:15:07;;;;;;;19.40;12.30;;;;;;;0.78;100.00;97099.67;110432;1241;59753;-62
2024/02/06 06:17:36;;;;;;;17.80;10.00;;;;;;;0.77;100.00;97091.48;109843;1241;701284;-62
2024/02/06 06:20:07;;;;;;;16.20;9.60;;;;;;;0.79;100.00;97083.16;110529;1238;70409;-62
2024/02/06 06:22:36;;;;;;;16.40;9.80;;;;;;;0.89;100.00;97091.52;110430;1241;69057;-62
2024/02/06 06:25:05;;;;;;;20.00;12.00;;;;;;;0.97;100.00;97083.50;110396;1241;69411;-62
2024/02/06 06:27:36;;;;;;;19.30;11.90;;;;;;;1.04;100.00;97083.55;110501;1241;59747;-62
2024/02/06 06:30:06;;;;;;;13.60;9.50;;;;;;;1.13;100.00;97082.50;110449;1238;59669;-62
2024/02/06 06:32:35;;;;;;;16.40;10.50;;;;;;;1.25;100.00;97081.51;110357;1240;71925;-62
2024/02/06 06:35:05;;;;;;;16.20;9.10;;;;;;;1.39;100.00;97082.45;110557;1238;69069;-62
2024/02/06 06:37:34;;;;;;;13.90;9.70;;;;;;;1.54;100.00;97085.80;110378;1240;69141;-62
2024/02/06 06:40:08;;;;;;;14.90;9.40;;;;;;;1.68;100.00;97085.57;110372;1241;59724;-62
2024/02/06 06:42:37;;;;;;;13.70;8.60;;;;;;;1.81;100.00;97087.92;110503;1242;59691;-62
2024/02/06 06:45:08;;;;;;;15.90;9.70;;;;;;;1.92;100.00;97088.98;110471;1242;72099;-63
2024/02/06 06:47:37;;;;;;;14.10;10.30;;;;;;;2.04;100.00;97084.17;110352;1242;69032;-62
2024/02/06 06:50:07;;;;;;;14.00;9.10;;;;;;;2.17;100.00;97085.98;110389;1241;69247;-60
2024/02/06 06:52:38;;;;;;;;;;;;;;;2.33;100.00;97081.68;110427;1238;59692;-61
2024/02/06 06:55:09;;;;;;;29.80;19.20;;;;;;;2.51;100.00;97081.36;110373;1238;59686;-61
2024/02/06 06:57:42;;;;;;;;;;;;;;;2.76;100.00;97078.33;110428;1241;72277;-61
2024/02/06 07:00:13;;;;;;;37.00;23.10;;;;;;;3.12;100.00;97081.42;110486;1238;69861;-61
2024/02/06 07:02:43;;;;;;;31.90;20.60;;;;;;;3.53;100.00;97078.73;110508;1241;69229;-61
2024/02/06 07:05:12;;;;;;;21.60;16.30;;;;;;;3.96;100.00;97075.50;110403;1241;59725;-62
2024/02/06 07:07:40;;;;;;;20.90;13.90;;;;;;;4.49;100.00;97070.84;110349;1238;59732;-62
2024/02/06 07:10:10;;;;;;;17.90;12.90;;;;;;;5.08;100.00;97071.05;110518;1238;71790;-62
2024/02/06 07:12:39;;;;;;;20.70;14.20;;;;;;;5.73;100.00;97070.72;110540;1242;69668;-62
2024/02/06 07:15:09;;;;;;;22.20;14.70;;;;;;;6.41;100.00;97070.86;110462;1240;69834;-62
2024/02/06 07:17:37;;;;;;;30.20;21.20;;;;;;;6.99;100.00;97072.08;110559;1242;59689;-62
2024/02/06 07:20:08;;;;;;;25.90;19.20;;;;;;;7.50;100.00;97075.85;110409;1239;59681;-61
2024/02/06 07:22:37;;;;;;;20.80;16.10;;;;;;;8.24;100.00;97069.35;110356;1241;72081;-62
2024/02/06 07:25:07;;;;;;;21.80;14.80;;;;;;;8.81;100.00;97066.08;110332;1240;69785;-62
2024/02/06 07:27:36;;;;;;;17.30;14.50;;;;;;;9.34;99.86;97070.60;110412;1240;69767;-62
2024/02/06 07:30:06;;;;;;;15.80;13.70;;;;;;;9.81;97.27;97069.22;110531;1239;59706;-62
2024/02/06 07:32:35;;;;;;;16.50;13.90;;;;;;;10.34;98.86;97070.20;110537;1241;60105;-62
2024/02/06 07:35:08;;;;;;;24.60;19.10;;;;;;;10.98;100.00;97069.92;110440;1241;71802;-62
2024/02/06 07:37:38;;;;;;;;;;;;;;;11.31;93.49;97070.20;110590;1238;69270;-62
2024/02/06 07:40:08;;;;;;;20.10;15.50;;;;;;;11.73;97.21;97064.39;110462;1241;68542;-61
2024/02/06 07:42:37;;;;;;;19.10;15.50;;;;;;;12.06;88.93;97066.13;110445;1239;59753;-62
2024/02/06 07:45:06;;;;;;;21.60;17.50;;;;;;;12.50;90.18;97064.54;110417;1240;59657;-62
2024/02/06 07:47:35;;;;;;;22.50;17.20;;;;;;;12.87;100.00;97060.25;110576;1238;71340;-62
2024/02/06 07:50:06;;;;;;;20.50;17.20;;;;;;;12.75;73.84;97066.20;110567;1238;68464;-62
2024/02/06 07:52:34;;;;;;;20.20;17.30;;;;;;;12.92;82.77;97054.67;110463;1238;70051;-62
2024/02/06 07:55:04;;;;;;;19.00;17.00;;;;;;;13.20;71.76;97071.98;110450;1240;59736;-62
2024/02/06 07:57:33;;;;;;;21.80;16.60;;;;;;;13.57;82.21;97056.52;110495;1240;59722;-62
2024/02/06 08:00:04;;;;;;;16.20;13.80;;;;;;;13.96;75.54;97066.94;110533;1238;71931;-62
2024/02/06 08:02:33;;;;;;;15.50;12.10;;;;;;;14.44;87.19;97070.52;110399;1241;68193;-62
2024/02/06 08:05:04;;;;;;;14.30;11.70;;;;;;;14.73;80.49;97059.61;110363;1241;69774;-62
2024/02/06 08:07:33;;;;;;;14.80;11.50;;;;;;;14.59;66.33;97077.27;110361;1241;59708;-61
2024/02/06 08:10:03;;;;;;;11.80;10.30;;;;;;;15.11;76.00;97073.98;110475;1241;59670;-62
2024/02/06 08:12:32;;;;;;;12.20;10.60;;;;;;;15.59;73.59;97064.05;110373;1241;71849;-62
2024/02/06 08:15:04;;;;;;;10.80;9.00;;;;;;;15.57;59.63;97089.91;110417;1241;69974;-62
2024/02/06 08:17:33;;;;;;;11.40;9.40;;;;;;;15.96;67.89;97071.13;110384;1241;69170;-62
2024/02/06 08:20:03;;;;;;;12.30;9.90;;;;;;;16.17;64.92;97076.53;110336;1241;59669;-62
2024/02/06 08:22:32;;;;;;;12.40;9.70;;;;;;;16.13;66.27;97069.09;110378;1241;60126;-62
2024/02/06 08:25:06;;;;;;;10.10;8.90;;;;;;;16.18;60.40;97073.98;110386;1240;71266;-63
2024/02/06 08:27:35;;;;;;;12.90;9.00;;;;;;;15.75;57.70;97073.08;110339;1240;69805;-63
2024/02/06 08:30:05;;;;;;;11.40;9.80;;;;;;;16.12;61.81;97066.90;110293;1241;70237;-63
2024/02/06 08:32:34;;;;;;;11.10;9.10;;;;;;;15.95;58.04;97067.86;110352;1241;59696;-63
2024/02/06 08:35:04;;;;;;;14.40;9.90;;;;;;;15.41;56.86;97066.86;110366;1247;59694;-62
2024/02/06 08:37:33;;;;;;;13.00;10.10;;;;;;;15.62;57.16;97073.08;110413;1238;70250;-62
2024/02/06 08:40:06;;;;;;;12.20;9.90;;;;;;;15.85;55.55;97066.95;110224;1241;69913;-62
2024/02/06 08:42:36;;;;;;;13.20;9.60;;;;;;;15.37;55.86;97066.73;110305;1241;70245;-62
2024/02/06 08:45:06;;;;;;;11.90;10.10;;;;;;;15.31;56.20;97063.64;110289;1241;59625;-62
2024/02/06 08:47:34;;;;;;;12.10;9.50;;;;;;;15.47;57.82;97063.98;110344;1241;59675;-62
2024/02/06 08:50:06;;;;;;;10.10;9.10;;;;;;;15.88;55.09;97066.49;110425;1241;71976;-64
2024/02/06 08:52:37;;;;;;;10.80;8.60;;;;;;;16.02;55.38;97065.30;110308;1241;69084;-64
2024/02/06 08:55:06;;;;;;;11.20;9.50;;;;;;;16.03;53.99;97072.73;110341;1241;69142;-64
2024/02/06 08:57:36;;;;;;;9.30;7.90;;;;;;;16.62;52.31;97061.10;110332;1241;59753;-62
2024/02/06 09:00:07;;;;;;;;;;;;;;;16.62;52.80;97067.42;110356;1241;59680;-62
2024/02/06 09:02:38;;;;;;;10.50;9.20;;;;;;;17.34;54.13;97056.20;110428;1240;71288;-62
2024/02/06 09:05:07;;;;;;;9.90;8.50;;;;;;;18.04;51.21;97066.33;110517;1241;70258;-62
2024/02/06 09:07:36;;;;;;;10.80;9.30;;;;;;;17.59;48.41;97063.95;110425;1240;69099;-63
2024/02/06 09:10:07;;;;;;;10.60;8.50;;;;;;;17.23;49.45;97051.79;110430;1241;59746;-63
2024/02/06 09:12:36;;;;;;;11.20;8.80;;;;;;;17.77;51.23;97054.10;110400;1241;59691;-62
2024/02/06 09:15:06;;;;;;;10.80;8.70;;;;;;;18.31;49.01;97057.60;110494;1242;71613;-62
2024/02/06 09:17:36;;;;;;;10.30;8.70;;;;;;;18.55;48.30;97060.92;110505;1242;69700;-63
2024/02/06 09:20:07;;;;;;;9.10;7.30;;;;;;;18.51;46.94;97062.31;110463;1239;69707;-63
2024/02/06 09:22:37;;;;;;;10.50;7.80;;;;;;;18.69;47.01;97046.69;110518;1241;59746;-63
2024/02/06 09:25:07;;;;;;;10.80;9.00;;;;;;;18.60;45.83;97051.23;110370;1241;59666;-64
2024/02/06 09:27:36;;;;;;;10.80;8.80;;;;;;;18.83;45.39;97036.24;110530;1241;70567;-64
2024/02/06 09:30:09;;;;;;;11.30;8.30;;;;;;;19.23;46.20;97042.30;110394;1241;69933;-64
2024/02/06 09:32:41;;;;;;;10.30;8.20;;;;;;;19.71;46.67;97041.92;110364;1240;68440;-63
2024/02/06 09:35:10;;;;;;;11.20;8.90;;;;;;;20.38;44.34;97041.75;110423;1241;60140;-64
2024/02/06 09:37:40;;;;;;;10.60;8.40;;;;;;;20.42;43.15;97036.45;110406;1241;59686;-64
2024/02/06 09:40:11;;;;;;;9.30;7.30;;;;;;;20.09;41.45;97030.05;110469;1241;71576;-62
2024/02/06 09:42:40;;;;;;;;;;;;;;;19.85;42.27;97030.38;110434;1241;69681;-62
2024/02/06 09:45:10;;;;;;;10.70;8.50;;;;;;;20.10;42.62;97025.59;110418;1241;68115;-63
2024/02/06 09:47:42;;;;;;;8.50;7.70;;;;;;;20.98;43.70;97019.71;110430;1241;59719;-63
2024/02/06 09:50:11;;;;;;;9.70;8.00;;;;;;;21.53;42.25;97012.09;110376;1241;59778;-63
2024/02/06 09:52:41;;;;;;;;;;;;;;;22.21;42.50;97013.08;110327;1241;71179;-64
2024/02/06 09:55:14;;;;;;;9.50;8.40;;;;;;;22.56;40.77;97005.51;110396;1241;69258;-62
2024/02/06 09:57:45;;;;;;;9.00;7.70;;;;;;;22.20;37.24;96998.86;110366;1240;69688;-63
2024/02/06 10:00:21;;;;;;;8.60;7.30;;;;;;;21.57;38.39;96996.63;110370;1241;60014;-64
2024/02/06 10:02:57;;;;;;;8.40;6.90;;;;;;;21.83;38.86;96996.10;110372;1241;59627;-63
2024/02/06 10:05:31;;;;;;;10.40;8.10;;;;;;;22.32;38.21;96995.42;110506;1241;71386;-63
2024/02/06 10:08:01;;;;;;;8.70;7.00;;;;;;;21.78;37.01;96990.09;110422;1241;69941;-64
2024/02/06 10:10:30;;;;;;;8.60;7.20;;;;;;;21.55;38.48;96988.06;110447;1241;69204;-64
2024/02/06 10:13:02;;;;;;;8.30;6.90;;;;;;;21.83;38.01;96985.21;110423;1241;59692;-64
2024/02/06 10:15:31;;;;;;;9.20;6.50;;;;;;;21.88;37.72;96982.35;110305;1241;59660;-63
2024/02/06 10:18:01;;;;;;;9.10;7.80;;;;;;;22.41;36.90;96980.27;110492;1241;71250;-64
2024/02/06 10:20:41;;;;;;;8.50;7.00;;;;;;;21.88;36.36;96983.58;110486;1241;69715;-64
2024/02/06 10:23:15;;;;;;;11.80;7.50;;;;;;;21.69;36.88;96980.27;110414;1241;69917;-63
2024/02/06 10:25:46;;;;;;;8.00;6.00;;;;;;;21.60;37.25;96980.16;110384;1238;59729;-63
2024/02/06 10:28:23;;;;;;;8.80;7.10;;;;;;;22.24;37.10;96976.34;110448;1242;59678;-63
2024/02/06 10:30:52;;;;;;;6.80;5.90;;;;;;;22.37;36.71;96973.13;110395;1238;70426;-64
2024/02/06 10:33:21;;;;;;;9.10;7.40;;;;;;;22.61;36.02;96967.59;110454;1238;69116;-64
2024/02/06 10:36:01;;;;;;;8.60;7.40;;;;;;;22.34;35.63;96965.65;110343;1238;69315;-64
2024/02/06 10:38:31;;;;;;;7.80;6.20;;;;;;;21.78;36.15;96967.38;110442;1241;59697;-64
2024/02/06 10:41:08;;;;;;;8.40;6.80;;;;;;;22.27;35.81;96964.21;110460;1242;59659;-64
2024/02/06 10:43:51;;;;;;;8.60;6.20;;;;;;;22.25;35.62;96958.80;110375;1240;71161;-63
2024/02/06 10:46:22;;;;;;;7.60;5.40;;;;;;;21.82;35.56;96957.56;110411;1238;68184;-63
2024/02/06 10:49:02;;;;;;;6.00;5.00;;;;;;;22.49;36.08;96950.29;110366;1241;69372;-63
2024/02/06 10:51:32;;;;;;;7.60;5.50;;;;;;;23.38;36.72;96947.34;110377;1240;59700;-63
2024/02/06 10:54:02;;;;;;;6.20;4.90;;;;;;;24.08;34.20;96953.14;110419;1239;59708;-63
2024/02/06 10:56:32;;;;;;;;;;;;;;;24.15;33.57;96946.27;110455;1241;70830;-63
2024/02/06 10:59:08;;;;;;;8.20;5.70;;;;;;;24.79;33.69;96940.70;110386;1240;70089;-63
2024/02/06 11:01:39;;;;;;;7.90;6.80;;;;;;;24.44;32.80;96930.38;110597;1240;69718;-62
2024/02/06 11:04:12;;;;;;;7.90;5.90;;;;;;;24.71;31.90;96930.96;110485;1240;59737;-63
2024/02/06 11:07:05;;;;;;;7.20;6.30;;;;;;;23.73;32.03;96926.23;110548;1240;59682;-63
2024/02/06 11:09:38;;;;;;;9.10;6.50;;;;;;;22.79;32.43;96915.77;110490;1241;71349;-62
2024/02/06 11:12:10;;;;;;;8.30;6.70;;;;;;;21.75;33.27;96904.96;110508;1240;69759;-62
2024/02/06 11:14:52;;;;;;;7.10;5.90;;;;;;;21.86;33.23;96903.86;110564;1240;69222;-63
2024/02/06 11:17:21;;;;;;;9.00;6.50;;;;;;;22.50;32.43;96905.55;110485;1239;59712;-63
2024/02/06 11:20:09;;;;;;;7.20;5.90;;;;;;;21.62;33.44;96904.14;110426;1241;60083;-63
2024/02/06 11:22:44;;;;;;;7.10;5.80;;;;;;;21.85;33.77;96897.21;110515;1241;72362;-65
2024/02/06 11:25:17;;;;;;;7.30;6.50;;;;;;;21.47;33.49;96906.61;110382;1240;69283;-64
2024/02/06 11:27:49;;;;;;;8.10;6.00;;;;;;;21.97;33.33;96893.50;110436;1241;69257;-64
2024/02/06 11:30:21;;;;;;;7.70;6.00;;;;;;;22.33;32.61;96894.67;110439;1241;59750;-63
2024/02/06 11:33:01;;;;;;;6.20;5.00;;;;;;;21.49;32.04;96887.35;110404;1241;59601;-62
2024/02/06 11:35:31;;;;;;;5.80;4.30;;;;;;;20.19;34.00;96885.86;110362;1239;71521;-63